createdAt,value
2018-09-21T00:01:52.300Z,99.90
2018-09-21T00:04:21.406Z,99.90
2018-09-21T00:06:50.957Z,99.90
2018-09-21T00:09:20.098Z,99.90
2018-09-21T00:11:49.291Z,99.90
2018-09-21T00:14:18.506Z,99.90
2018-09-21T00:16:47.622Z,99.90
2018-09-21T00:19:16.754Z,99.90
2018-09-21T00:21:45.886Z,99.90
2018-09-21T00:24:15.046Z,99.90
2018-09-21T00:26:43.889Z,99.90
2018-09-21T00:29:13.029Z,99.90
2018-09-21T00:31:42.186Z,99.90
2018-09-21T00:34:11.330Z,99.90
2018-09-21T00:36:40.482Z,99.90
2018-09-21T00:39:10.594Z,99.90
2018-09-21T00:41:39.785Z,99.90
2018-09-21T00:44:09.010Z,99.90
2018-09-21T00:46:38.305Z,99.90
2018-09-21T00:49:07.626Z,99.90
2018-09-21T00:51:36.986Z,99.90
2018-09-21T00:54:06.591Z,99.90
2018-09-21T00:56:35.906Z,99.90
2018-09-21T00:59:05.102Z,99.90
2018-09-21T01:01:34.339Z,99.90
2018-09-21T01:04:03.676Z,99.90
2018-09-21T01:06:32.814Z,99.90
2018-09-21T01:09:02.762Z,99.90
2018-09-21T01:11:31.929Z,99.90
2018-09-21T01:14:01.101Z,99.90
2018-09-21T01:16:30.274Z,99.90
2018-09-21T01:18:59.927Z,99.90
2018-09-21T01:21:29.062Z,99.90
2018-09-21T01:23:58.181Z,99.90
2018-09-21T01:26:27.325Z,99.90
2018-09-21T01:28:57.110Z,99.90
2018-09-21T01:31:26.246Z,99.90
2018-09-21T01:33:55.411Z,99.90
2018-09-21T01:36:25.197Z,99.90
2018-09-21T01:38:54.315Z,99.90
2018-09-21T01:41:23.438Z,99.90
2018-09-21T01:43:52.581Z,99.90
2018-09-21T01:46:21.706Z,99.90
2018-09-21T01:48:51.376Z,99.90
2018-09-21T01:51:20.554Z,99.90
2018-09-21T01:53:49.706Z,99.90
2018-09-21T01:56:20.229Z,99.90
2018-09-21T01:58:49.445Z,99.90
2018-09-21T02:01:18.721Z,99.90
2018-09-21T02:03:48.001Z,99.90
2018-09-21T02:06:17.245Z,99.90
2018-09-21T02:08:46.674Z,99.90
2018-09-21T02:11:16.717Z,99.90
2018-09-21T02:13:46.450Z,99.90
2018-09-21T02:16:15.598Z,99.90
2018-09-21T02:18:44.770Z,99.90
2018-09-21T02:21:13.930Z,99.90
2018-09-21T02:23:43.498Z,99.90
2018-09-21T02:26:13.233Z,99.90
2018-09-21T02:28:42.389Z,99.90
2018-09-21T02:31:11.662Z,99.90
2018-09-21T02:33:40.782Z,99.90
2018-09-21T02:36:10.491Z,99.90
2018-09-21T02:38:39.989Z,99.90
2018-09-21T02:41:09.210Z,99.90
2018-09-21T02:43:38.403Z,99.90
2018-09-21T02:46:07.582Z,99.90
2018-09-21T02:48:36.789Z,99.90
2018-09-21T02:51:05.940Z,99.90
2018-09-21T02:53:35.087Z,99.90
2018-09-21T02:56:04.761Z,99.90
2018-09-21T02:58:34.538Z,99.90
2018-09-21T03:01:03.411Z,99.90
2018-09-21T03:03:32.546Z,99.90
2018-09-21T03:06:01.683Z,99.90
2018-09-21T03:08:31.593Z,99.90
2018-09-21T03:11:00.737Z,99.90
2018-09-21T03:13:29.899Z,99.90
2018-09-21T03:15:59.038Z,99.90
2018-09-21T03:18:28.791Z,99.90
2018-09-21T03:20:57.932Z,99.90
2018-09-21T03:23:27.065Z,99.90
2018-09-21T03:25:56.201Z,99.90
2018-09-21T03:28:25.329Z,99.90
2018-09-21T03:30:54.482Z,99.90
2018-09-21T03:33:23.618Z,99.90
2018-09-21T03:35:53.301Z,99.90
2018-09-21T03:38:22.425Z,99.90
2018-09-21T03:40:51.558Z,99.90
2018-09-21T03:43:20.683Z,99.90
2018-09-21T03:45:49.825Z,99.90
2018-09-21T03:48:19.011Z,99.90
2018-09-21T03:50:48.190Z,99.90
2018-09-21T03:53:17.419Z,99.90
2018-09-21T03:55:46.629Z,99.90
2018-09-21T03:58:15.930Z,99.90
2018-09-21T04:00:45.099Z,99.90
2018-09-21T04:03:14.361Z,99.90
2018-09-21T04:05:43.651Z,99.90
2018-09-21T04:08:13.239Z,99.90
2018-09-21T04:10:42.443Z,99.90
2018-09-21T04:13:11.675Z,99.90
2018-09-21T04:15:41.003Z,99.90
2018-09-21T04:18:09.989Z,99.90
2018-09-21T04:20:39.530Z,99.90
2018-09-21T04:23:08.685Z,99.90
2018-09-21T04:25:38.034Z,99.90
2018-09-21T04:28:07.174Z,99.90
2018-09-21T04:30:36.357Z,99.90
2018-09-21T04:33:05.509Z,99.90
2018-09-21T04:35:34.654Z,99.90
2018-09-21T04:38:03.841Z,99.90
2018-09-21T04:40:32.979Z,99.90
2018-09-21T04:43:02.150Z,99.90
2018-09-21T04:45:31.350Z,99.90
2018-09-21T04:48:00.894Z,99.90
2018-09-21T04:50:30.310Z,99.90
2018-09-21T04:52:59.447Z,99.90
2018-09-21T04:55:29.198Z,99.90
2018-09-21T04:57:58.406Z,99.90
2018-09-21T05:00:27.539Z,99.90
2018-09-21T05:02:56.658Z,99.90
2018-09-21T05:05:26.518Z,99.90
2018-09-21T05:07:55.645Z,99.90
2018-09-21T05:10:24.770Z,99.90
2018-09-21T05:12:54.305Z,99.90
2018-09-21T05:15:29.943Z,99.90
2018-09-21T05:17:59.090Z,99.90
2018-09-21T05:20:28.250Z,99.90
2018-09-21T05:22:57.506Z,99.90
2018-09-21T05:25:26.906Z,99.90
2018-09-21T05:27:56.248Z,99.90
2018-09-21T05:30:25.682Z,99.90
2018-09-21T05:32:54.779Z,99.90
2018-09-21T05:35:23.918Z,99.90
2018-09-21T05:37:53.634Z,99.90
2018-09-21T05:40:22.846Z,99.90
2018-09-21T05:42:52.137Z,99.90
2018-09-21T05:45:21.474Z,99.90
2018-09-21T05:47:50.699Z,99.90
2018-09-21T05:50:19.842Z,99.90
2018-09-21T05:52:49.061Z,99.90
2018-09-21T05:55:18.244Z,99.90
2018-09-21T05:57:47.437Z,99.90
2018-09-21T06:00:17.892Z,99.90
2018-09-21T06:02:47.169Z,99.90
2018-09-21T06:05:16.718Z,99.90
2018-09-21T06:07:45.995Z,99.90
2018-09-21T06:10:15.243Z,99.90
2018-09-21T06:12:44.952Z,99.90
2018-09-21T06:15:14.213Z,99.90
2018-09-21T06:17:43.454Z,99.90
2018-09-21T06:20:12.821Z,99.90
2018-09-21T06:22:45.154Z,99.90
2018-09-21T06:25:11.555Z,99.90
2018-09-21T06:27:41.458Z,99.90
2018-09-21T06:30:11.372Z,99.90
2018-09-21T06:32:41.277Z,99.90
2018-09-21T06:35:10.567Z,99.90
2018-09-21T06:37:39.946Z,99.90
2018-09-21T06:40:09.190Z,99.90
2018-09-21T06:42:38.450Z,99.90
2018-09-21T06:45:08.110Z,99.90
2018-09-21T06:47:37.318Z,99.90
2018-09-21T06:50:07.143Z,99.90
2018-09-21T06:52:36.416Z,99.90
2018-09-21T06:55:06.553Z,99.90
2018-09-21T06:57:36.181Z,99.90
2018-09-21T07:00:05.570Z,99.90
2018-09-21T07:02:34.871Z,99.90
2018-09-21T07:05:12.506Z,99.90
2018-09-21T07:07:42.889Z,99.90
2018-09-21T07:10:12.221Z,99.90
2018-09-21T07:12:42.110Z,99.90
2018-09-21T07:15:11.658Z,99.90
2018-09-21T07:17:41.548Z,99.90
2018-09-21T07:20:10.733Z,99.90
2018-09-21T07:22:41.066Z,99.90
2018-09-21T07:25:10.214Z,99.90
2018-09-21T07:27:39.349Z,99.90
2018-09-21T07:30:08.538Z,99.90
2018-09-21T07:32:38.083Z,99.90
2018-09-21T07:35:07.386Z,99.90
2018-09-21T07:37:36.589Z,99.80
2018-09-21T07:40:06.398Z,98.60
2018-09-21T07:42:35.522Z,99.80
2018-09-21T07:45:04.713Z,99.90
2018-09-21T07:47:33.914Z,99.70
2018-09-21T07:50:03.106Z,99.50
2018-09-21T07:52:32.253Z,98.00
2018-09-21T07:55:01.602Z,96.90
2018-09-21T07:57:30.794Z,96.20
2018-09-21T07:59:59.950Z,96.50
2018-09-21T08:02:29.199Z,95.50
2018-09-21T08:04:59.014Z,95.20
2018-09-21T08:07:28.270Z,95.50
2018-09-21T08:09:57.496Z,95.30
2018-09-21T08:12:26.317Z,95.70
2018-09-21T08:14:55.461Z,95.40
2018-09-21T08:17:24.655Z,95.20
2018-09-21T08:19:54.241Z,95.10
2018-09-21T08:22:23.543Z,95.80
2018-09-21T08:24:52.711Z,97.70
2018-09-21T08:27:21.886Z,99.30
2018-09-21T08:29:51.145Z,99.90
2018-09-21T08:32:20.404Z,99.40
2018-09-21T08:34:49.570Z,99.60
2018-09-21T08:37:18.852Z,99.40
2018-09-21T08:39:47.884Z,98.80
2018-09-21T08:42:17.032Z,98.50
2018-09-21T08:44:46.168Z,97.60
2018-09-21T08:47:15.301Z,97.00
2018-09-21T08:49:44.517Z,95.90
2018-09-21T08:52:13.674Z,94.70
2018-09-21T08:54:43.107Z,94.40
2018-09-21T08:57:12.063Z,95.40
2018-09-21T08:59:41.419Z,95.80
2018-09-21T09:02:10.297Z,95.00
2018-09-21T09:04:39.826Z,94.30
2018-09-21T09:07:09.202Z,92.40
2018-09-21T09:09:38.645Z,89.50
2018-09-21T09:12:07.947Z,80.10
2018-09-21T09:14:37.646Z,79.50
2018-09-21T09:17:06.631Z,81.30
2018-09-21T09:19:35.809Z,82.70
2018-09-21T09:22:05.770Z,78.80
2018-09-21T09:24:35.013Z,77.00
2018-09-21T09:27:03.830Z,80.60
2018-09-21T09:29:33.025Z,81.80
2018-09-21T09:32:02.207Z,81.90
2018-09-21T09:34:31.345Z,82.60
2018-09-21T09:37:00.511Z,81.70
2018-09-21T09:39:29.615Z,83.20
2018-09-21T09:41:58.765Z,82.20
2018-09-21T09:44:27.882Z,82.00
2018-09-21T09:46:57.507Z,80.50
2018-09-21T09:49:26.758Z,80.40
2018-09-21T09:51:55.938Z,80.20
2018-09-21T09:54:25.093Z,80.20
2018-09-21T09:56:54.176Z,80.10
2018-09-21T09:59:23.357Z,78.80
2018-09-21T10:01:52.595Z,76.70
2018-09-21T10:04:22.204Z,75.00
2018-09-21T10:06:51.459Z,74.10
2018-09-21T10:09:20.884Z,72.70
2018-09-21T10:11:50.277Z,71.80
2018-09-21T10:14:19.505Z,72.60
2018-09-21T10:16:48.785Z,75.30
2018-09-21T10:19:17.905Z,75.80
2018-09-21T10:21:47.102Z,77.40
2018-09-21T10:24:16.374Z,78.60
2018-09-21T10:26:45.681Z,78.90
2018-09-21T10:29:14.765Z,80.80
2018-09-21T10:31:43.914Z,80.90
2018-09-21T10:34:13.027Z,81.40
2018-09-21T10:36:42.143Z,82.20
2018-09-21T10:39:11.340Z,82.70
2018-09-21T10:41:40.406Z,83.30
2018-09-21T10:44:09.567Z,83.50
2018-09-21T10:46:38.738Z,83.30
2018-09-21T10:49:07.950Z,82.70
2018-09-21T10:51:37.449Z,82.50
2018-09-21T10:54:06.534Z,82.80
2018-09-21T10:56:35.712Z,82.40
2018-09-21T10:59:04.895Z,82.70
2018-09-21T11:01:34.033Z,82.00
2018-09-21T11:04:03.617Z,80.80
2018-09-21T11:06:32.858Z,78.80
2018-09-21T11:09:02.715Z,77.10
2018-09-21T11:11:31.935Z,77.80
2018-09-21T11:14:01.178Z,77.40
2018-09-21T11:16:30.414Z,77.00
2018-09-21T11:19:00.154Z,76.80
2018-09-21T11:21:30.526Z,76.70
2018-09-21T11:23:59.824Z,76.50
2018-09-21T11:26:29.085Z,77.00
2018-09-21T11:28:58.286Z,77.10
2018-09-21T11:31:27.909Z,77.40
2018-09-21T11:33:57.057Z,78.50
2018-09-21T11:36:26.218Z,78.90
2018-09-21T11:38:55.362Z,80.50
2018-09-21T11:41:24.502Z,82.20
2018-09-21T11:43:53.696Z,82.70
2018-09-21T11:46:22.850Z,83.10
2018-09-21T11:48:51.981Z,82.70
2018-09-21T11:51:21.112Z,83.10
2018-09-21T11:53:50.333Z,82.50
2018-09-21T11:56:19.741Z,83.40
2018-09-21T11:58:48.918Z,84.00
2018-09-21T12:01:18.069Z,84.90
2018-09-21T12:03:47.601Z,85.30
2018-09-21T12:06:16.762Z,85.50
2018-09-21T12:08:46.012Z,85.60
2018-09-21T12:11:15.192Z,85.50
2018-09-21T12:13:44.313Z,85.70
2018-09-21T12:16:13.460Z,86.20
2018-09-21T12:18:42.830Z,86.00
2018-09-21T12:21:12.205Z,85.60
2018-09-21T12:23:42.198Z,85.20
2018-09-21T12:26:11.434Z,83.50
2018-09-21T12:28:40.598Z,83.90
2018-09-21T12:31:09.806Z,84.70
2018-09-21T12:33:38.930Z,84.20
2018-09-21T12:36:09.225Z,84.30
2018-09-21T12:38:38.312Z,85.90
2018-09-21T12:41:07.426Z,86.40
2018-09-21T12:43:36.665Z,86.40
2018-09-21T12:46:10.563Z,86.90
2018-09-21T12:48:39.746Z,87.80
2018-09-21T12:51:08.890Z,86.20
2018-09-21T12:53:38.039Z,86.20
2018-09-21T12:56:07.198Z,87.20
2018-09-21T12:58:37.042Z,87.60
2018-09-21T13:01:06.174Z,86.80
2018-09-21T13:03:35.392Z,87.40
2018-09-21T13:06:04.547Z,86.50
2018-09-21T13:08:34.121Z,87.30
2018-09-21T13:11:03.263Z,87.70
2018-09-21T13:13:32.475Z,88.70
2018-09-21T13:16:01.630Z,88.50
2018-09-21T13:18:31.379Z,89.10
2018-09-21T13:21:00.522Z,88.70
2018-09-21T13:23:29.806Z,88.00
2018-09-21T13:25:59.507Z,87.90
2018-09-21T13:28:28.711Z,87.20
2018-09-21T13:30:58.354Z,87.00
2018-09-21T13:33:28.229Z,87.00
2018-09-21T13:35:57.382Z,87.00
2018-09-21T13:38:26.526Z,86.80
2018-09-21T13:40:55.706Z,86.60
2018-09-21T13:43:24.830Z,86.00
2018-09-21T13:45:53.965Z,86.40
2018-09-21T13:48:23.821Z,86.30
2018-09-21T13:50:52.933Z,85.80
2018-09-21T13:53:22.873Z,86.10
2018-09-21T13:55:52.027Z,85.70
2018-09-21T13:58:21.146Z,85.80
2018-09-21T14:00:50.629Z,86.40
2018-09-21T14:03:19.782Z,86.40
2018-09-21T14:05:48.954Z,86.60
2018-09-21T14:08:18.137Z,86.30
2018-09-21T14:10:47.286Z,86.40
2018-09-21T14:13:16.450Z,86.90
2018-09-21T14:15:45.578Z,86.50
2018-09-21T14:18:14.748Z,86.60
2018-09-21T14:20:44.508Z,86.80
2018-09-21T14:23:13.629Z,86.10
2018-09-21T14:25:42.989Z,86.40
2018-09-21T14:28:12.814Z,86.30
2018-09-21T14:30:41.941Z,86.00
2018-09-21T14:33:11.169Z,85.50
2018-09-21T14:35:40.323Z,85.70
2018-09-21T14:38:09.567Z,85.20
2018-09-21T14:40:38.811Z,84.90
2018-09-21T14:43:07.996Z,85.10
2018-09-21T14:45:37.053Z,85.90
2018-09-21T14:48:06.306Z,84.70
2018-09-21T14:50:35.888Z,84.70
2018-09-21T14:53:05.119Z,84.60
2018-09-21T14:55:34.282Z,84.50
2018-09-21T14:58:03.458Z,83.60
2018-09-21T15:00:32.583Z,84.00
2018-09-21T15:03:01.756Z,83.30
2018-09-21T15:05:30.930Z,83.60
2018-09-21T15:08:00.046Z,83.60
2018-09-21T15:10:29.212Z,85.00
2018-09-21T15:12:58.338Z,84.40
2018-09-21T15:15:27.485Z,84.90
2018-09-21T15:17:56.632Z,85.20
2018-09-21T15:20:25.838Z,85.50
2018-09-21T15:22:54.989Z,85.60
2018-09-21T15:25:24.270Z,86.00
2018-09-21T15:27:53.640Z,85.00
2018-09-21T15:30:23.259Z,83.40
2018-09-21T15:32:53.334Z,83.20
2018-09-21T15:35:22.918Z,82.80
2018-09-21T15:37:53.478Z,79.90
2018-09-21T15:40:22.654Z,79.30
2018-09-21T15:42:51.999Z,79.40
2018-09-21T15:45:21.178Z,79.90
2018-09-21T15:47:50.263Z,80.40
2018-09-21T15:50:19.442Z,79.60
2018-09-21T15:52:48.693Z,90.20
2018-09-21T15:55:17.796Z,96.20
2018-09-21T15:57:46.924Z,99.10
2018-09-21T16:00:16.427Z,99.90
2018-09-21T16:02:45.570Z,99.90
2018-09-21T16:05:14.823Z,99.90
2018-09-21T16:07:44.080Z,99.90
2018-09-21T16:10:13.206Z,99.90
2018-09-21T16:12:42.338Z,99.90
2018-09-21T16:15:11.457Z,99.90
2018-09-21T16:17:40.937Z,99.90
2018-09-21T16:20:10.118Z,99.90
2018-09-21T16:22:39.254Z,99.90
2018-09-21T16:25:08.407Z,99.90
2018-09-21T16:27:37.565Z,99.90
2018-09-21T16:30:08.116Z,99.90
2018-09-21T16:32:37.481Z,99.90
2018-09-21T16:35:07.090Z,99.90
2018-09-21T16:37:36.203Z,99.90
2018-09-21T16:40:05.407Z,99.90
2018-09-21T16:42:34.538Z,99.90
2018-09-21T16:45:04.076Z,99.90
2018-09-21T16:47:33.211Z,99.90
2018-09-21T16:50:02.380Z,99.90
2018-09-21T16:52:31.601Z,99.90
2018-09-21T16:55:01.016Z,99.90
2018-09-21T16:57:31.235Z,99.90
2018-09-21T17:00:00.110Z,99.90
2018-09-21T17:02:29.214Z,99.90
2018-09-21T17:04:58.919Z,99.90
2018-09-21T17:07:27.775Z,99.90
2018-09-21T17:09:56.595Z,99.90
2018-09-21T17:12:26.038Z,99.90
2018-09-21T17:14:55.181Z,99.90
2018-09-21T17:17:24.647Z,99.90
2018-09-21T17:19:54.377Z,99.90
2018-09-21T17:22:24.055Z,99.90
2018-09-21T17:24:54.133Z,99.90
2018-09-21T17:27:24.072Z,99.90
2018-09-21T17:29:54.009Z,99.90
2018-09-21T17:32:23.511Z,99.90
2018-09-21T17:34:52.828Z,99.90
2018-09-21T17:37:22.789Z,99.90
2018-09-21T17:39:51.949Z,99.90
2018-09-21T17:42:21.798Z,99.90
2018-09-21T17:44:51.091Z,99.90
2018-09-21T17:47:20.267Z,99.90
2018-09-21T17:49:49.774Z,99.90
2018-09-21T17:52:18.902Z,99.90
2018-09-21T17:54:48.045Z,99.90
2018-09-21T17:57:17.177Z,99.90
2018-09-21T17:59:46.349Z,99.90
2018-09-21T18:02:15.980Z,99.90
2018-09-21T18:04:45.863Z,99.90
2018-09-21T18:07:20.983Z,99.90
2018-09-21T18:09:52.072Z,99.90
2018-09-21T18:12:21.410Z,99.90
2018-09-21T18:14:51.557Z,99.90
2018-09-21T18:17:20.758Z,99.90
2018-09-21T18:19:49.958Z,99.90
2018-09-21T18:22:19.119Z,99.90
2018-09-21T18:24:48.640Z,99.90
2018-09-21T18:27:18.339Z,99.90
2018-09-21T18:29:47.515Z,99.90
2018-09-21T18:32:16.662Z,99.90
2018-09-21T18:34:45.837Z,99.90
2018-09-21T18:37:15.020Z,99.90
2018-09-21T18:39:44.910Z,99.90
2018-09-21T18:42:14.039Z,99.90
2018-09-21T18:44:45.122Z,99.90
2018-09-21T18:47:15.571Z,99.90
2018-09-21T18:49:44.791Z,99.90
2018-09-21T18:52:13.995Z,99.90
2018-09-21T18:54:44.089Z,99.90
2018-09-21T18:57:13.290Z,99.90
2018-09-21T18:59:42.442Z,99.90
2018-09-21T19:02:11.671Z,99.90
2018-09-21T19:04:40.933Z,99.90
2018-09-21T19:07:15.286Z,99.90
2018-09-21T19:09:44.445Z,99.90
2018-09-21T19:12:14.525Z,99.90
2018-09-21T19:14:43.784Z,99.90
2018-09-21T19:17:13.481Z,99.90
2018-09-21T19:19:42.626Z,99.90
2018-09-21T19:22:11.777Z,99.90
2018-09-21T19:24:41.464Z,99.90
2018-09-21T19:27:10.729Z,99.90
2018-09-21T19:29:39.666Z,99.90
2018-09-21T19:32:09.334Z,99.90
2018-09-21T19:34:40.268Z,99.90
2018-09-21T19:37:09.415Z,99.90
2018-09-21T19:39:38.768Z,99.90
2018-09-21T19:42:08.239Z,99.90
2018-09-21T19:44:37.538Z,99.90
2018-09-21T19:47:06.870Z,99.90
2018-09-21T19:49:36.174Z,99.90
2018-09-21T19:52:05.439Z,99.90
2018-09-21T19:54:34.504Z,99.90
2018-09-21T19:57:03.622Z,99.90
2018-09-21T19:59:32.806Z,99.90
2018-09-21T20:02:02.781Z,99.90
2018-09-21T20:04:31.953Z,99.90
2018-09-21T20:07:01.098Z,99.90
2018-09-21T20:09:30.530Z,99.90
2018-09-21T20:11:59.885Z,99.90
2018-09-21T20:14:29.773Z,99.90
2018-09-21T20:16:59.134Z,99.90
2018-09-21T20:19:27.934Z,99.90
2018-09-21T20:21:58.842Z,99.90
2018-09-21T20:24:28.370Z,99.90
2018-09-21T20:26:57.691Z,99.90
2018-09-21T20:29:26.868Z,99.90
2018-09-21T20:32:01.606Z,99.90
2018-09-21T20:34:31.066Z,99.90
2018-09-21T20:37:00.190Z,99.90
2018-09-21T20:39:29.386Z,99.90
2018-09-21T20:41:58.506Z,99.90
2018-09-21T20:44:28.725Z,99.90
2018-09-21T20:46:58.195Z,99.90
2018-09-21T20:49:27.344Z,99.90
2018-09-21T20:51:56.506Z,99.90
2018-09-21T20:54:26.098Z,99.90
2018-09-21T20:56:54.948Z,99.90
2018-09-21T20:59:24.715Z,99.90
2018-09-21T21:01:53.753Z,99.90
2018-09-21T21:04:24.028Z,99.90
2018-09-21T21:06:53.446Z,99.90
2018-09-21T21:09:23.070Z,99.90
2018-09-21T21:11:52.549Z,99.90
2018-09-21T21:14:21.800Z,99.90
2018-09-21T21:16:51.054Z,99.90
2018-09-21T21:19:20.321Z,99.90
2018-09-21T21:21:49.719Z,99.90
2018-09-21T21:24:19.443Z,99.90
2018-09-21T21:26:48.572Z,99.90
2018-09-21T21:29:17.714Z,99.90
2018-09-21T21:31:47.139Z,99.90
2018-09-21T21:34:16.392Z,99.90
2018-09-21T21:36:45.521Z,99.90
2018-09-21T21:39:14.766Z,99.90
2018-09-21T21:41:44.594Z,99.90
2018-09-21T21:44:14.019Z,99.90
2018-09-21T21:46:43.145Z,99.90
2018-09-21T21:49:12.321Z,99.90
2018-09-21T21:51:41.398Z,99.90
2018-09-21T21:54:10.490Z,99.90
2018-09-21T21:56:39.661Z,99.90
2018-09-21T21:59:09.394Z,99.90
2018-09-21T22:01:43.801Z,99.90
2018-09-21T22:04:13.337Z,99.90
2018-09-21T22:06:43.354Z,99.90
2018-09-21T22:09:13.374Z,99.90
2018-09-21T22:13:49.748Z,99.90
2018-09-21T22:16:18.647Z,99.90
2018-09-21T22:18:48.225Z,99.90
2018-09-21T22:21:17.339Z,99.90
2018-09-21T22:23:46.458Z,99.90
2018-09-21T22:26:16.338Z,99.90
2018-09-21T22:28:45.675Z,99.90
2018-09-21T22:31:14.811Z,99.90
2018-09-21T22:33:43.908Z,99.90
2018-09-21T22:36:12.990Z,99.90
2018-09-21T22:38:42.130Z,99.90
2018-09-21T22:41:11.238Z,99.90
2018-09-21T22:43:40.846Z,99.90
2018-09-21T22:46:09.959Z,99.90
2018-09-21T22:48:39.063Z,99.90
2018-09-21T22:51:09.602Z,99.90
2018-09-21T22:53:38.735Z,99.90
2018-09-21T22:56:08.207Z,99.90
2018-09-21T22:58:38.520Z,99.90
2018-09-21T23:01:08.410Z,99.90
2018-09-21T23:03:37.539Z,99.90
2018-09-21T23:06:06.898Z,99.90
2018-09-21T23:08:36.729Z,99.90
2018-09-21T23:11:05.838Z,99.90
2018-09-21T23:13:34.988Z,99.90
2018-09-21T23:16:04.805Z,99.90
2018-09-21T23:18:35.165Z,99.90
2018-09-21T23:21:04.734Z,99.90
2018-09-21T23:23:34.078Z,99.90
2018-09-21T23:26:03.677Z,99.90
2018-09-21T23:28:32.781Z,99.90
2018-09-21T23:31:01.921Z,99.90
2018-09-21T23:33:31.050Z,99.90
2018-09-21T23:36:00.166Z,99.90
2018-09-21T23:38:29.953Z,99.90
2018-09-21T23:40:59.136Z,99.90
2018-09-21T23:43:28.258Z,99.90
2018-09-21T23:45:57.349Z,99.90
2018-09-21T23:48:26.509Z,99.90
2018-09-21T23:50:55.194Z,99.90
2018-09-21T23:53:24.443Z,99.90
2018-09-21T23:55:53.560Z,99.90
2018-09-21T23:58:22.678Z,99.90
